Terminal Aerodrome Forecast
Issued by NWS Wilmington, OH

Home | Current Version | Previous Version | Text Only | Print | Product List | Glossary On
Versions: 1 2 3 4 5 6 7 8 9 10 11 12 13 14 15 16 17 18 19 20 21 22 23
000
FTUS41 KILN 241730
TAFCVG
TAF
KCVG 241730Z 2418/2524 19019G29KT P6SM FEW045 BKN200
     FM250100 20014G24KT 6SM -SHRA VCTS OVC040CB
      TEMPO 2501/2504 4SM TSRA BR OVC025CB
     FM250600 28014G24KT P6SM VCSH BKN050
     FM250900 27014G24KT P6SM BKN045
     FM251200 26016G26KT P6SM OVC025
     FM251900 27016G26KT P6SM OVC035=

USA.gov is the U.S. government's official web portal to all federal, state and local government web resources and services.